Time;durP1;ratioP1;P1;durP2;ratioP2;P2;SDS_P1;SDS_P2;PMS_P1;PMS_P2;Temp;Humidity;BMP_temperature;BMP_pressure;BME280_temperature;BME280_humidity;BME280_pressure;Samples;Min_cycle;Max_cycle;Signal;HPM_P1;HPM_P2
2023/05/19 00:19:11;;;;;;;6.32;2.28;;;12.20;97.50;;;;;;6072799;23;20033;-87
2023/05/19 00:39:03;;;;;;;7.40;2.22;;;;;;;;;;6053331;23;20032;-88
2023/05/19 00:41:29;;;;;;;6.65;2.40;;;;;;;;;;6215876;23;19996;-90
2023/05/19 00:43:57;;;;;;;7.38;2.55;;;;;;;;;;6214982;23;20005;-89
2023/05/19 00:46:23;;;;;;;6.25;2.38;;;;;;;;;;6212694;23;20001;-90
2023/05/19 00:48:50;;;;;;;8.10;2.08;;;;;;;;;;6192016;23;19985;-89
2023/05/19 00:51:19;;;;;;;8.25;2.35;;;;;;;;;;6242891;23;20005;-89
2023/05/19 00:53:47;;;;;;;6.30;2.13;;;;;;;;;;6240634;23;19993;-89
2023/05/19 00:56:16;;;;;;;5.15;2.10;;;;;;;;;;6237095;23;19996;-90
2023/05/19 00:58:42;;;;;;;10.48;2.10;;;;;;;;;;6213715;23;20013;-89
2023/05/19 01:01:08;;;;;;;6.30;2.20;;;;;;;;;;6215184;23;20055;-89
2023/05/19 01:03:35;;;;;;;9.57;2.45;;;;;;;;;;6212030;23;20005;-89
2023/05/19 01:06:03;;;;;;;4.22;2.08;;;;;;;;;;6240215;23;20013;-89
2023/05/19 01:08:31;;;;;;;8.38;2.00;;;;;;;;;;6213786;23;19993;-89
2023/05/19 01:10:57;;;;;;;4.45;2.00;;;;;;;;;;6214575;23;19992;-88
2023/05/19 01:13:23;;;;;;;7.88;2.10;;;;;;;;;;6215468;23;19997;-90
2023/05/19 01:16:11;;;;;;;10.05;2.70;;;;;;;;;;6213219;23;19995;-88
2023/05/19 01:19:00;;;;;;;8.93;2.47;;;;;;;;;;6221674;23;20012;-89
2023/05/19 01:21:46;;;;;;;9.63;2.72;;;;;;;;;;6214991;23;20009;-88
2023/05/19 01:24:31;;;;;;;6.60;2.25;;;;;;;;;;6189161;23;20051;-89
2023/05/19 01:27:09;;;;;;;6.97;2.10;;;;;;;;;;6241055;23;19997;-89
2023/05/19 01:29:54;;;;;;;6.35;2.00;;;;;;;;;;6214758;23;19996;-87
2023/05/19 01:32:20;;;;;;;6.47;2.30;;;;;;;;;;6214573;23;20056;-89
2023/05/19 01:34:48;;;;;;;7.50;2.67;;;;;;;;;;6214156;23;20000;-89
2023/05/19 01:37:15;;;;;;;10.57;2.50;;;;;;;;;;6215155;23;20001;-89
2023/05/19 01:39:44;;;;;;;7.93;2.28;;;;;;;;;;6209670;23;20271;-89
2023/05/19 01:42:11;;;;;;;6.57;2.05;;;;;;;;;;6210422;23;19993;-89
2023/05/19 01:44:37;;;;;;;12.23;2.70;;;;;;;;;;6210022;23;20130;-90
2023/05/19 01:47:03;;;;;;;8.68;1.95;;;;;;;;;;6209458;23;20197;-90
2023/05/19 01:49:29;;;;;;;5.65;2.40;;;;;;;;;;6210254;23;20001;-87
2023/05/19 01:51:55;;;;;;;5.50;2.45;;;;;;;;;;6208097;23;20005;-89
2023/05/19 01:54:22;;;;;;;6.80;2.10;;;;;;;;;;6207350;23;20049;-89
2023/05/19 01:57:03;;;;;;;4.43;1.98;;;;;;;;;;6207897;23;20001;-89
2023/05/19 01:59:29;;;;;;;6.03;2.00;;;;;;;;;;6209542;23;20020;-88
2023/05/19 02:01:59;;;;;;;4.63;1.70;;;;;;;;;;6210661;23;20027;-89
2023/05/19 02:04:28;;;;;;;6.78;2.10;;;;;;;;;;6209835;23;20009;-88
2023/05/19 02:07:02;;;;;;;5.50;2.08;;;;;;;;;;6205305;23;20015;-88
2023/05/19 02:09:39;;;;;;;8.45;2.03;;;;;;;;;;6204194;23;20091;-89
2023/05/19 02:12:19;;;;;;;5.50;1.70;;;;;;;;;;6202293;23;20007;-89
2023/05/19 02:14:48;;;;;;;5.40;1.70;;;;;;;;;;6204983;23;19993;-89
2023/05/19 02:17:15;;;;;;;6.38;2.38;;;;;;;;;;6208406;23;20381;-87
2023/05/19 02:19:44;;;;;;;8.88;2.22;;;;;;;;;;6209274;23;20011;-89
2023/05/19 02:22:10;;;;;;;8.93;2.22;;;;;;;;;;6208653;23;20021;-87
2023/05/19 02:24:36;;;;;;;5.80;2.00;;;;;;;;;;6209672;23;20223;-88
2023/05/19 02:27:03;;;;;;;7.70;2.45;;;;;;;;;;6181728;23;20009;-88
2023/05/19 02:29:29;;;;;;;4.95;2.13;;;;;;;;;;6206504;23;20061;-89
2023/05/19 02:31:55;;;;;;;5.60;2.20;;;;;;;;;;6208632;23;20000;-88
2023/05/19 02:34:21;;;;;;;5.53;2.00;;;;;;;;;;6207713;23;20009;-90
2023/05/19 02:36:50;;;;;;;9.70;2.22;;;;;;;;;;6208148;23;20043;-89
2023/05/19 02:39:16;;;;;;;6.40;2.15;;;;;;;;;;6207628;23;20017;-89
2023/05/19 02:41:42;;;;;;;6.03;2.10;;;;;;;;;;6208221;23;20013;-88
2023/05/19 02:44:08;;;;;;;6.28;2.30;;;;;;;;;;6205826;23;20017;-89
2023/05/19 02:46:34;;;;;;;5.00;2.13;;;;;;;;;;6206288;23;20024;-88
2023/05/19 02:49:00;;;;;;;7.30;1.90;;;;;;;;;;6205455;23;20064;-88
2023/05/19 02:51:26;;;;;;;7.55;2.10;;;;;;;;;;6208011;23;20013;-87
2023/05/19 02:53:52;;;;;;;7.35;2.33;;;;;;;;;;6207476;23;20064;-90
2023/05/19 02:56:18;;;;;;;5.45;2.00;;;;;;;;;;6207086;23;20005;-90
2023/05/19 02:58:44;;;;;;;6.07;2.08;;;;;;;;;;6206275;23;20021;-89
2023/05/19 03:01:10;;;;;;;10.43;2.53;;;;;;;;;;6205987;23;20005;-89
2023/05/19 03:03:36;;;;;;;4.50;2.08;;;;;;;;;;6208465;23;20024;-89
2023/05/19 03:06:02;;;;;;;6.78;2.78;;;;;;;;;;6207640;23;20048;-87
2023/05/19 03:08:28;;;;;;;8.45;2.20;;;;;;;;;;6203914;23;20009;-87
2023/05/19 03:10:55;;;;;;;4.97;2.20;;;;;;;;;;6205125;23;20055;-87
2023/05/19 03:13:21;;;;;;;6.15;2.53;;;;;;;;;;6206400;23;20012;-88
2023/05/19 03:15:47;;;;;;;9.32;2.72;;;;;;;;;;6206576;23;20008;-88
2023/05/19 03:18:13;;;;;;;7.05;2.60;;;;;;;;;;6206594;23;20009;-87
2023/05/19 03:20:41;;;;;;;6.35;2.50;;;;;;;;;;6209594;23;20001;-89
2023/05/19 03:23:07;;;;;;;7.15;2.33;;;;;;;;;;6205123;23;20048;-87
2023/05/19 03:25:33;;;;;;;6.97;2.25;;;;;;;;;;6208404;23;20021;-88
2023/05/19 03:28:00;;;;;;;5.70;2.00;;;;;;;;;;6209640;23;19993;-89
2023/05/19 03:30:26;;;;;;;7.10;2.38;;;;;;;;;;6209321;23;20009;-87
2023/05/19 03:32:52;;;;;;;5.97;2.28;;;;;;;;;;6210417;23;20005;-90
2023/05/19 03:35:18;;;;;;;7.50;2.42;;;;;;;;;;6210066;23;20077;-89
2023/05/19 03:37:44;;;;;;;5.00;2.10;;;;;;;;;;6209860;23;20008;-88
2023/05/19 03:40:10;;;;;;;6.63;2.10;;;;;;;;;;6209469;23;20001;-86
2023/05/19 03:42:36;;;;;;;8.05;2.28;;;;;;;;;;6208408;23;20317;-87
2023/05/19 03:45:02;;;;;;;4.93;2.10;;;;;;;;;;6210722;23;19997;-89
2023/05/19 03:47:30;;;;;;;5.82;2.03;;;;;;;;;;6209780;23;19993;-88
2023/05/19 03:49:56;;;;;;;7.10;2.00;;;;;;;;;;6210804;23;20009;-87
2023/05/19 15:45:20;;;;;;;3.95;1.50;;;;;;;;;;6189211;23;20092;-88
2023/05/19 15:47:47;;;;;;;5.15;1.73;;;;;;;;;;6088098;23;20019;-84
2023/05/19 15:50:13;;;;;;;7.00;1.75;;;;;;;;;;6092578;23;20021;-89
2023/05/19 15:52:39;;;;;;;4.30;1.67;;;;;;;;;;6091357;23;20010;-85
2023/05/19 15:55:06;;;;;;;3.63;1.67;;;;;;;;;;6089140;23;20014;-85
2023/05/19 15:57:32;;;;;;;7.60;1.50;;;;;;;;;;6090470;23;20094;-85
2023/05/19 15:59:58;;;;;;;5.68;1.73;;;;;;;;;;6090439;23;20034;-85
2023/05/19 16:02:23;;;;;;;5.97;1.73;;;19.20;78.80;;;;;;6091280;23;20011;-85
2023/05/19 16:04:49;;;;;;;4.85;1.80;;;;;;;;;;6087566;23;20453;-85
2023/05/19 16:07:15;;;;;;;5.35;1.55;;;;;;;;;;6092257;23;20064;-85
2023/05/19 16:09:41;;;;;;;6.75;1.80;;;;;;;;;;6094700;23;20041;-84
2023/05/19 16:12:07;;;;;;;3.38;1.52;;;19.20;79.80;;;;;;6090916;23;20011;-84
2023/05/19 16:14:35;;;;;;;3.75;1.80;;;;;;;;;;6091286;23;20034;-84
2023/05/19 16:17:01;;;;;;;4.78;1.55;;;19.00;81.00;;;;;;6092172;23;20006;-83
2023/05/19 16:19:27;;;;;;;4.70;2.22;;;19.00;81.10;;;;;;6093357;23;20007;-84
2023/05/19 16:21:53;;;;;;;4.15;1.83;;;;;;;;;;6088509;23;20010;-84
2023/05/19 16:24:19;;;;;;;4.30;1.95;;;;;;;;;;6094772;23;20058;-84
2023/05/19 16:26:47;;;;;;;6.03;1.83;;;18.80;82.20;;;;;;6090940;23;20414;-84
2023/05/19 16:29:13;;;;;;;4.10;1.50;;;;;;;;;;6094587;23;20014;-84
2023/05/19 16:31:39;;;;;;;3.80;1.63;;;;;;;;;;6093009;23;20036;-84
2023/05/19 16:34:05;;;;;;;3.45;1.63;;;;;;;;;;6093480;23;20009;-85
2023/05/19 16:36:31;;;;;;;4.07;1.55;;;;;;;;;;6097374;23;20014;-83
2023/05/19 16:38:57;;;;;;;6.32;1.50;;;;;;;;;;6107693;23;20005;-82
2023/05/19 16:41:23;;;;;;;3.72;1.50;;;18.70;82.80;;;;;;6109715;23;20324;-84
2023/05/19 16:43:49;;;;;;;4.28;1.52;;;;;;;;;;6093099;23;20422;-85
2023/05/19 16:46:15;;;;;;;7.50;1.65;;;;;;;;;;6095171;23;20065;-84
2023/05/19 16:48:41;;;;;;;6.05;1.80;;;;;;;;;;6095839;23;20078;-85
2023/05/19 16:51:07;;;;;;;5.03;1.65;;;;;;;;;;6093860;23;20013;-86
2023/05/19 16:53:33;;;;;;;4.60;1.80;;;;;;;;;;6093312;23;20070;-85
2023/05/19 16:55:59;;;;;;;5.28;1.63;;;;;;;;;;6097074;23;20032;-85
2023/05/19 16:58:25;;;;;;;5.13;1.88;;;;;;;;;;6096249;23;20357;-87
2023/05/19 17:00:52;;;;;;;3.88;1.50;;;;;;;;;;6096572;23;20017;-84
2023/05/19 17:03:18;;;;;;;4.75;2.20;;;;;;;;;;6094832;23;20017;-83
2023/05/19 17:05:44;;;;;;;7.88;2.10;;;;;;;;;;6099699;23;20003;-86
2023/05/19 17:08:11;;;;;;;4.28;1.63;;;;;;;;;;6103664;23;20033;-86
2023/05/19 17:10:38;;;;;;;4.22;2.00;;;18.80;83.20;;;;;;6104968;23;20017;-86
2023/05/19 17:13:04;;;;;;;3.58;1.40;;;;;;;;;;6103092;23;20342;-86
2023/05/19 17:15:30;;;;;;;4.78;1.63;;;;;;;;;;6103211;23;20006;-86
2023/05/19 17:17:56;;;;;;;4.95;1.75;;;;;;;;;;6104230;23;20025;-86
2023/05/19 17:20:22;;;;;;;5.47;2.60;;;;;;;;;;6105652;23;19986;-85
2023/05/19 17:22:48;;;;;;;4.82;1.60;;;;;;;;;;6095301;23;20065;-86
2023/05/19 17:25:14;;;;;;;5.45;1.92;;;;;;;;;;6094477;23;20496;-85
2023/05/19 17:27:40;;;;;;;4.57;1.70;;;18.60;84.20;;;;;;6094563;23;20017;-85
2023/05/19 17:30:07;;;;;;;2.67;1.50;;;18.50;84.50;;;;;;6069742;23;20018;-85
2023/05/19 17:32:37;;;;;;;5.63;1.85;;;18.60;84.40;;;;;;6097901;23;19998;-85
2023/05/19 17:35:05;;;;;;;5.22;2.00;;;;;;;;;;6098056;23;20011;-85
2023/05/19 17:37:31;;;;;;;6.72;1.98;;;;;;;;;;6099846;23;20017;-85
2023/05/19 17:39:57;;;;;;;5.82;2.00;;;18.40;84.70;;;;;;6097446;23;20002;-85
2023/05/19 17:42:27;;;;;;;3.85;2.05;;;;;;;;;;6096937;23;20014;-85
2023/05/19 17:44:54;;;;;;;6.38;2.47;;;;;;;;;;6097960;23;20448;-85
2023/05/19 17:47:20;;;;;;;6.20;1.88;;;;;;;;;;6111793;23;20282;-84
2023/05/19 17:49:46;;;;;;;4.55;1.95;;;;;;;;;;6108820;23;20022;-86
2023/05/19 17:52:12;;;;;;;3.85;1.67;;;18.20;85.40;;;;;;6095795;23;20010;-86
2023/05/19 17:54:38;;;;;;;3.85;1.77;;;18.20;85.80;;;;;;6102756;23;20110;-85
2023/05/19 17:57:09;;;;;;;2.95;1.67;;;18.20;85.80;;;;;;6101094;23;20201;-84
2023/05/19 17:59:36;;;;;;;4.65;1.92;;;18.00;86.10;;;;;;6105714;23;20010;-84
2023/05/19 18:02:02;;;;;;;5.55;2.22;;;18.10;86.00;;;;;;6113799;23;20013;-84
2023/05/19 18:04:28;;;;;;;4.40;1.90;;;18.00;86.00;;;;;;6111302;23;20002;-86
2023/05/19 18:06:55;;;;;;;3.72;1.70;;;18.00;86.10;;;;;;6115694;23;20025;-85
2023/05/19 18:09:22;;;;;;;4.03;2.03;;;;;;;;;;6115650;23;20053;-85
2023/05/19 18:11:48;;;;;;;3.83;1.75;;;;;;;;;;6103792;23;20073;-85
2023/05/19 18:14:14;;;;;;;6.68;2.28;;;;;;;;;;6129262;23;20010;-84
2023/05/19 18:16:40;;;;;;;4.53;2.25;;;;;;;;;;6126380;23;20002;-86
2023/05/19 18:19:06;;;;;;;8.80;2.47;;;;;;;;;;6125885;23;20006;-86
2023/05/19 18:21:32;;;;;;;5.22;2.10;;;;;;;;;;6124759;23;20017;-86
2023/05/19 18:24:01;;;;;;;4.55;2.03;;;17.70;87.60;;;;;;6125636;23;20174;-86
2023/05/19 18:26:27;;;;;;;5.90;1.90;;;;;;;;;;6124413;23;20001;-83
2023/05/19 18:28:53;;;;;;;7.47;2.22;;;22.00;90.10;;;;;;6122448;23;20039;-83
2023/05/19 18:31:19;;;;;;;9.15;2.40;;;;;;;;;;6122602;23;20006;-86
2023/05/19 18:33:46;;;;;;;3.67;2.20;;;;;;;;;;6124363;23;20362;-85
2023/05/19 18:36:14;;;;;;;3.55;2.00;;;;;;;;;;6125439;23;20346;-85
2023/05/19 18:38:40;;;;;;;4.68;2.40;;;;;;;;;;6127945;23;20057;-85
2023/05/19 18:41:06;;;;;;;4.68;2.00;;;17.60;88.50;;;;;;6125705;23;20412;-86
2023/05/19 18:43:33;;;;;;;4.80;2.08;;;;;;;;;;6125582;23;20010;-82
2023/05/19 18:45:59;;;;;;;5.97;2.20;;;;;;;;;;6125775;23;20002;-85
2023/05/19 18:48:25;;;;;;;5.03;2.20;;;;;;;;;;6126632;23;20005;-85
2023/05/19 18:50:51;;;;;;;6.68;2.00;;;;;;;;;;6127778;23;20002;-85
2023/05/19 18:53:21;;;;;;;3.83;1.90;;;17.70;88.40;;;;;;6128372;23;20005;-86
2023/05/19 18:55:47;;;;;;;6.10;2.08;;;;;;;;;;6126437;23;20017;-86
2023/05/19 18:58:13;;;;;;;3.35;1.83;;;;;;;;;;6126804;23;20009;-84
2023/05/19 19:00:39;;;;;;;4.32;1.83;;;;;;;;;;6131659;23;20037;-85
2023/05/19 19:03:05;;;;;;;3.60;2.03;;;17.60;88.70;;;;;;6142106;23;19990;-85
2023/05/19 19:05:33;;;;;;;8.35;4.40;;;17.50;89.40;;;;;;6132405;23;20613;-85
2023/05/19 19:07:59;;;;;;;6.22;2.88;;;17.50;89.60;;;;;;6135509;23;20076;-85
2023/05/19 19:10:28;;;;;;;5.05;2.10;;;;;;;;;;6131306;23;20057;-83
2023/05/19 19:12:54;;;;;;;6.60;2.03;;;;;;;;;;6128426;23;20026;-84
2023/05/19 19:15:20;;;;;;;4.55;2.30;;;;;;;;;;6130450;23;20089;-85
2023/05/19 19:17:46;;;;;;;6.22;2.20;;;;;;;;;;6126542;23;20069;-84
2023/05/19 19:20:15;;;;;;;6.47;2.13;;;17.50;90.00;;;;;;6129390;23;20018;-85
2023/05/19 19:22:41;;;;;;;5.22;2.20;;;;;;;;;;6125814;23;20069;-85
2023/05/19 19:25:07;;;;;;;4.63;2.10;;;17.50;90.00;;;;;;6126221;23;19998;-85
2023/05/19 19:27:34;;;;;;;6.63;2.30;;;;;;;;;;6127213;23;20014;-86
2023/05/19 19:30:03;;;;;;;4.82;2.42;;;17.50;90.10;;;;;;6128311;23;20006;-87
2023/05/19 19:32:31;;;;;;;6.25;2.60;;;;;;;;;;6130898;23;20337;-84
2023/05/19 19:34:57;;;;;;;9.90;4.82;;;;;;;;;;6129446;23;19998;-84
2023/05/19 19:37:23;;;;;;;6.78;2.67;;;;;;;;;;6130145;23;20022;-85
2023/05/19 19:39:49;;;;;;;4.43;2.65;;;;;;;;;;6139909;23;20009;-86
2023/05/19 19:42:15;;;;;;;5.15;2.38;;;;;;;;;;6137068;23;20057;-86
2023/05/19 19:44:41;;;;;;;5.13;2.40;;;;;;;;;;6141160;23;20002;-84
2023/05/19 19:47:07;;;;;;;4.05;2.13;;;;;;;;;;6140250;23;20393;-83
2023/05/19 19:49:33;;;;;;;5.82;2.33;;;17.30;90.80;;;;;;6140898;23;20010;-86
2023/05/19 19:51:59;;;;;;;4.90;2.50;;;;;;;;;;6142906;23;20077;-86
2023/05/19 19:54:25;;;;;;;7.05;2.28;;;17.20;91.00;;;;;;6145545;23;20010;-87
2023/05/19 19:56:51;;;;;;;5.35;2.33;;;;;;;;;;6138059;23;20013;-86
2023/05/19 19:59:17;;;;;;;5.45;2.35;;;;;;;;;;6139829;23;20002;-86
2023/05/19 20:01:43;;;;;;;6.60;2.55;;;;;;;;;;6141110;23;20033;-85
2023/05/19 20:04:11;;;;;;;5.22;2.55;;;;;;;;;;6146288;23;20309;-87
2023/05/19 20:06:40;;;;;;;6.13;2.47;;;;;;;;;;6148299;23;20001;-87
2023/05/19 20:09:06;;;;;;;5.53;2.60;;;;;;;;;;6148200;23;20009;-87
2023/05/19 20:11:32;;;;;;;4.60;2.50;;;;;;;;;;6148533;23;20005;-84
2023/05/19 20:13:58;;;;;;;5.22;2.33;;;;;;;;;;6148985;23;20215;-86
2023/05/19 20:16:24;;;;;;;5.07;2.58;;;;;;;;;;6146382;23;19990;-86
2023/05/19 20:18:50;;;;;;;6.07;2.80;;;;;;;;;;6147077;23;19998;-86
2023/05/19 20:21:16;;;;;;;6.53;2.63;;;;;;;;;;6147161;23;20029;-86
2023/05/19 20:23:42;;;;;;;7.70;3.35;;;;;;;;;;6140313;23;20014;-85
2023/05/19 20:26:08;;;;;;;6.15;2.70;;;;;;;;;;6138793;23;20020;-86
2023/05/19 20:28:34;;;;;;;4.97;2.40;;;;;;;;;;6134076;23;20002;-85
2023/05/19 20:31:00;;;;;;;7.53;2.75;;;;;;;;;;6131045;23;20006;-84
2023/05/19 20:33:26;;;;;;;6.43;2.70;;;;;;;;;;6129261;23;20013;-84
2023/05/19 20:35:52;;;;;;;5.75;3.10;;;;;;;;;;6127899;23;20021;-84
2023/05/19 20:38:18;;;;;;;5.65;2.55;;;;;;;;;;6129689;23;20021;-84
2023/05/19 20:40:44;;;;;;;4.40;2.63;;;16.80;93.10;;;;;;6127119;23;20014;-83
2023/05/19 20:43:10;;;;;;;5.28;2.92;;;;;;;;;;6134822;23;20002;-84
2023/05/19 20:45:36;;;;;;;4.70;2.67;;;;;;;;;;6134161;23;20006;-85
2023/05/19 20:48:02;;;;;;;4.95;2.70;;;;;;;;;;6128820;23;20338;-83
2023/05/19 20:50:28;;;;;;;6.40;3.03;;;;;;;;;;6127147;23;20014;-86
2023/05/19 20:52:57;;;;;;;5.15;2.80;;;16.80;93.60;;;;;;6126493;23;20406;-84
2023/05/19 20:55:22;;;;;;;5.38;2.50;;;;;;;;;;6131726;23;20018;-84
2023/05/19 20:57:49;;;;;;;6.10;2.80;;;;;;;;;;6128882;23;20010;-86
2023/05/19 21:00:15;;;;;;;5.18;2.72;;;16.70;93.80;;;;;;6128456;23;20416;-84
2023/05/19 21:02:41;;;;;;;8.02;3.30;;;;;;;;;;6139330;23;20048;-83
2023/05/19 21:05:07;;;;;;;6.82;2.90;;;;;;;;;;6131553;23;20002;-84
2023/05/19 21:07:32;;;;;;;8.15;2.85;;;16.70;94.10;;;;;;6129566;23;20010;-85
2023/05/19 21:09:58;;;;;;;6.00;2.72;;;;;;;;;;6137853;23;20066;-86
2023/05/19 21:12:32;;;;;;;5.47;2.78;;;;;;;;;;6147035;23;20012;-86
2023/05/19 21:14:59;;;;;;;7.82;2.72;;;;;;;;;;6149495;23;19994;-88
2023/05/19 21:17:25;;;;;;;6.07;2.88;;;;;;;;;;6148478;23;20005;-86
2023/05/19 21:19:56;;;;;;;4.95;2.50;;;;;;;;;;6147210;23;20029;-83
2023/05/19 21:22:22;;;;;;;4.47;2.35;;;;;;;;;;6146921;23;20010;-85
2023/05/19 21:24:48;;;;;;;6.03;2.67;;;;;;;;;;6151308;23;19982;-84
2023/05/19 21:27:14;;;;;;;4.63;2.67;;;;;;;;;;6150071;23;20004;-86
2023/05/19 21:29:40;;;;;;;5.28;2.60;;;;;;;;;;6148737;23;20442;-87
2023/05/19 21:32:06;;;;;;;5.35;2.55;;;;;;;;;;6150445;23;20030;-89
2023/05/19 21:34:32;;;;;;;7.10;2.75;;;;;;;;;;6150645;23;20017;-88
2023/05/19 21:36:58;;;;;;;4.53;2.20;;;;;;;;;;6151429;23;20392;-89
2023/05/19 21:39:24;;;;;;;7.05;2.30;;;;;;;;;;6150783;23;20006;-87
2023/05/19 21:41:50;;;;;;;5.85;2.15;;;;;;;;;;6149689;23;19990;-88
2023/05/19 21:44:17;;;;;;;4.88;1.90;;;;;;;;;;6150190;23;19996;-87
2023/05/19 21:46:48;;;;;;;7.72;2.30;;;;;;;;;;6144315;23;20017;-85
2023/05/19 21:49:15;;;;;;;4.25;1.80;;;;;;;;;;6147292;23;20018;-85
2023/05/19 21:51:41;;;;;;;5.15;1.98;;;;;;;;;;6123502;23;20029;-88
2023/05/19 21:54:07;;;;;;;7.53;2.03;;;;;;;;;;6125443;23;20029;-83
2023/05/19 21:56:33;;;;;;;6.88;2.00;;;;;;;;;;6126227;23;20009;-87
2023/05/19 21:58:59;;;;;;;3.03;1.60;;;;;;;;;;6121252;23;20351;-84
2023/05/19 22:01:25;;;;;;;3.72;1.98;;;;;;;;;;6124621;23;20430;-87
2023/05/19 22:03:52;;;;;;;4.60;1.70;;;;;;;;;;6123581;23;20432;-86
2023/05/19 22:06:18;;;;;;;3.72;1.77;;;;;;;;;;6123154;23;20031;-87
2023/05/19 22:08:44;;;;;;;4.57;1.70;;;;;;;;;;6125466;23;20084;-85
2023/05/19 22:11:13;;;;;;;3.28;1.73;;;;;;;;;;6128005;23;20082;-86
2023/05/19 22:13:39;;;;;;;3.97;1.70;;;;;;;;;;6140370;23;20029;-88
2023/05/19 22:16:06;;;;;;;2.97;1.60;;;;;;;;;;6141107;23;20018;-89
2023/05/19 22:18:32;;;;;;;3.92;1.60;;;;;;;;;;6142798;23;20021;-85
2023/05/19 22:20:58;;;;;;;3.42;1.85;;;;;;;;;;6140806;23;20259;-87
2023/05/19 22:23:24;;;;;;;2.80;1.77;;;;;;;;;;6143223;23;20014;-86
2023/05/19 22:25:50;;;;;;;3.78;1.58;;;16.60;91.40;;;;;;6129126;23;20149;-87
2023/05/19 22:28:15;;;;;;;3.83;1.55;;;16.70;91.20;;;;;;6126139;23;20017;-86
2023/05/19 22:30:42;;;;;;;2.90;1.60;;;;;;;;;;6120115;23;20057;-87
2023/05/19 22:33:08;;;;;;;5.00;1.98;;;;;;;;;;6124218;23;20012;-85
2023/05/19 22:35:34;;;;;;;3.72;1.88;;;;;;;;;;6124182;23;20085;-86
2023/05/19 22:38:00;;;;;;;3.75;1.90;;;;;;;;;;6126820;23;20030;-85
2023/05/19 22:40:26;;;;;;;3.70;1.70;;;;;;;;;;6123524;23;20208;-84
2023/05/19 22:42:52;;;;;;;4.63;1.80;;;;;;;;;;6121426;23;20089;-88
2023/05/19 22:45:18;;;;;;;3.05;1.60;;;;;;;;;;6123808;23;20006;-84
2023/05/19 22:47:46;;;;;;;2.72;1.70;;;;;;;;;;6122043;23;20081;-87
2023/05/19 22:50:13;;;;;;;3.40;1.70;;;;;;;;;;6121924;23;20376;-86
2023/05/19 22:52:39;;;;;;;3.33;1.63;;;;;;;;;;6120558;23;20010;-87
2023/05/19 22:55:05;;;;;;;3.92;1.60;;;16.40;90.80;;;;;;6121325;23;20061;-89
2023/05/19 22:57:31;;;;;;;3.75;2.05;;;;;;;;;;6120124;23;20436;-85
2023/05/19 22:59:57;;;;;;;4.18;1.70;;;;;;;;;;6116746;23;20006;-86
2023/05/19 23:02:23;;;;;;;2.17;1.40;;;;;;;;;;6118918;23;20010;-88
2023/05/19 23:04:49;;;;;;;3.35;1.60;;;;;;;;;;6120962;23;20552;-88
2023/05/19 23:07:15;;;;;;;3.08;1.60;;;;;;;;;;6121169;23;20006;-84
2023/05/19 23:09:41;;;;;;;3.33;1.50;;;;;;;;;;6124999;23;20049;-87
2023/05/19 23:12:07;;;;;;;2.28;1.30;;;;;;;;;;6127238;23;20092;-82
2023/05/19 23:14:33;;;;;;;4.13;1.60;;;;;;;;;;6126128;23;20009;-85
2023/05/19 23:16:59;;;;;;;3.00;1.67;;;;;;;;;;6128493;23;20005;-86
2023/05/19 23:19:26;;;;;;;4.75;1.65;;;;;;;;;;6130443;23;20771;-87
2023/05/19 23:21:52;;;;;;;3.58;1.85;;;;;;;;;;6127941;23;20098;-83
2023/05/19 23:24:18;;;;;;;3.78;1.50;;;;;;;;;;6128471;23;20385;-85
2023/05/19 23:26:44;;;;;;;2.70;1.50;;;;;;;;;;6130724;23;20036;-84
2023/05/19 23:29:13;;;;;;;4.00;1.65;;;;;;;;;;6129495;23;20187;-88
2023/05/19 23:31:40;;;;;;;3.85;1.70;;;;;;;;;;6128458;23;20045;-86
2023/05/19 23:34:06;;;;;;;3.47;1.70;;;;;;;;;;6129862;23;20005;-81
2023/05/19 23:36:32;;;;;;;3.92;1.73;;;16.30;90.90;;;;;;6132382;23;20010;-87
2023/05/19 23:38:59;;;;;;;5.30;1.85;;;16.30;91.00;;;;;;6131782;23;20466;-84
2023/05/19 23:41:25;;;;;;;5.65;1.65;;;;;;;;;;6132473;23;20006;-87
2023/05/19 23:43:51;;;;;;;3.40;1.75;;;;;;;;;;6134166;23;19994;-86
2023/05/19 23:46:17;;;;;;;3.30;1.73;;;;;;;;;;6129954;23;20380;-83
2023/05/19 23:48:43;;;;;;;3.75;1.67;;;;;;;;;;6131712;23;20022;-84
2023/05/19 23:51:09;;;;;;;3.50;1.63;;;;;;;;;;6136125;23;20085;-84
2023/05/19 23:53:35;;;;;;;2.30;1.50;;;;;;;;;;6134255;23;20028;-87
2023/05/19 23:56:01;;;;;;;3.45;1.60;;;;;;;;;;6134907;23;19998;-85
2023/05/19 23:58:27;;;;;;;3.67;1.58;;;16.20;91.30;;;;;;6131885;23;19998;-87
